Impacts METAR Board
IDs:

KIAD - Washington/Dulles In, VA, US

Updated at: 0500 UTC 25 May 2018
Potential Impact None Slight Moderate High
Time 24/17Z 24/18Z 24/19Z 24/20Z 24/21Z 24/22Z 24/23Z 25/00Z 25/01Z 25/02Z 25/03Z 25/04Z 25/05Z
Temp80 81 82 82 83 83 82 77 69 67 69 64 61
Dewpt50 48 50 47 46 48 49 52 55 55 54 55 56
Altim30.20 30.18 30.17 30.15 30.14 30.12 30.11 30.12 30.13 30.14 30.14 30.14 30.14
VIS10 10 10 10 10 10 10 10 10 10 10 10 10
CIG-- -- -- -- -- -- -- -- -- -- -- -- --
CoverCLRCLRCLRCLRCLRCLRCLRCLRFEWFEWCLRFEWSCT
FltCatVFRVFRVFRVFRVFRVFRVFRVFRVFRVFRVFRVFRVFR
WX--------------------------
WDir2000600400210200180180160160
WSpd7 3 0 5 3 5 0 3 3 5 6 4 3
WGst-- -- -- -- -- -- -- -- -- -- -- -- --
Raw hourly METARs
KIAD 241652Z 02007KT 10SM CLR 27/10 A3020 RMK AO2 SLP224 T02670100
KIAD 241752Z VRB03KT 10SM CLR 27/09 A3018 RMK AO2 SLP218 T02720089 10272 20189 58007
KIAD 241852Z 00000KT 10SM CLR 28/10 A3017 RMK AO2 SLP214 T02780100
KIAD 241952Z 06005KT 10SM CLR 28/08 A3015 RMK AO2 SLP207 T02780083
KIAD 242052Z VRB03KT 10SM CLR 28/08 A3014 RMK AO2 SLP203 T02830078 56015
KIAD 242152Z 04005KT 10SM CLR 28/09 A3012 RMK AO2 SLP197 T02830089
KIAD 242252Z 00000KT 10SM CLR 28/09 A3011 RMK AO2 SLP194 T02780094
KIAD 242352Z 21003KT 10SM CLR 25/11 A3012 RMK AO2 SLP196 T02500111 10289 20250 55006
KIAD 250052Z 20003KT 10SM FEW200 21/13 A3013 RMK AO2 SLP201 T02060128
KIAD 250152Z 18005KT 10SM FEW200 19/13 A3014 RMK AO2 SLP205 T01940128
KIAD 250252Z 18006KT 10SM CLR 21/12 A3014 RMK AO2 SLP205 T02060122 51009
KIAD 250352Z 16004KT 10SM FEW250 18/13 A3014 RMK AO2 SLP204 T01780128
KIAD 250452Z 16003KT 10SM SCT250 16/13 A3014 RMK AO2 SLP202 T01610133 402890133



Page loaded:  05:09 UTC  |   10:09 PM Pacific  |   11:09 PM Mountain  |   12:09 AM Central  |   01:09 AM Eastern

 

ADVISORIES

FORECASTS

FORECASTS

OBSERVATIONS

USER TOOLS

ABOUT US